Time;durP1;ratioP1;P1;durP2;ratioP2;P2;SDS_P1;SDS_P2;PMS_P1;PMS_P2;Temp;Humidity;BMP_temperature;BMP_pressure;BME280_temperature;BME280_humidity;BME280_pressure;Samples;Min_cycle;Max_cycle;Signal;HPM_P1;HPM_P2
2022/01/03 00:01:46;;;;;;;8.77;2.17;;;10.50;99.90;;;;;;4976995;28;20239;-86
2022/01/03 00:04:14;;;;;;;8.90;1.90;;;11.10;99.90;;;;;;4997338;28;20428;-86
2022/01/03 00:06:40;;;;;;;10.10;2.22;;;10.70;99.90;;;;;;5003252;28;20439;-85
2022/01/03 00:09:07;;;;;;;9.17;2.60;;;10.40;99.90;;;;;;4995412;28;20296;-86
2022/01/03 00:11:33;;;;;;;7.60;3.55;;;11.00;99.90;;;;;;5002362;28;20228;-86
2022/01/03 00:14:05;;;;;;;6.90;2.80;;;10.80;99.90;;;;;;5089036;23;20233;-83
2022/01/03 00:16:31;;;;;;;3.83;2.00;;;10.50;99.90;;;;;;4987623;28;20882;-83
2022/01/03 00:19:00;;;;;;;6.40;3.03;;;10.50;99.90;;;;;;4992819;28;20201;-84
2022/01/03 00:21:30;;;;;;;5.32;3.85;;;10.40;99.90;;;;;;4989882;28;20437;-83
2022/01/03 00:24:10;;;;;;;3.92;2.60;;;10.30;99.90;;;;;;4988065;28;20224;-83
2022/01/03 00:26:39;;;;;;;9.23;2.00;;;10.10;99.90;;;;;;4976963;28;20184;-84
2022/01/03 00:29:19;;;;;;;3.83;2.25;;;10.80;99.90;;;;;;4990823;28;20228;-84
2022/01/03 00:31:47;;;;;;;4.93;2.20;;;10.60;99.90;;;;;;4989259;28;20237;-83
2022/01/03 00:34:14;;;;;;;5.60;1.90;;;10.80;99.90;;;;;;4996467;28;20446;-84
2022/01/03 00:36:40;;;;;;;6.85;1.98;;;10.90;99.90;;;;;;4990358;28;20214;-84
2022/01/03 00:39:08;;;;;;;7.40;2.63;;;11.20;99.90;;;;;;4998705;28;20195;-84
2022/01/03 00:41:39;;;;;;;11.70;2.10;;;12.10;99.90;;;;;;5000234;28;21019;-84
2022/01/03 00:44:10;;;;;;;9.17;3.17;;;11.00;99.90;;;;;;4992975;28;20258;-85
2022/01/03 00:46:36;;;;;;;9.97;2.90;;;10.60;99.90;;;;;;4990668;28;20662;-83
2022/01/03 00:49:06;;;;;;;9.50;2.37;;;10.60;99.90;;;;;;4990673;28;20562;-83
2022/01/03 00:51:33;;;;;;;5.55;1.85;;;10.50;99.90;;;;;;4989604;28;20180;-84
2022/01/03 00:53:59;;;;;;;6.90;1.77;;;11.10;99.90;;;;;;5016588;28;20188;-84
2022/01/03 00:56:33;;;;;;;10.53;2.97;;;10.30;99.90;;;;;;5008046;28;20478;-84
2022/01/03 00:59:11;;;;;;;12.80;2.10;;;10.70;99.90;;;;;;4982261;28;20200;-83
2022/01/03 01:01:43;;;;;;;6.93;2.92;;;10.70;99.90;;;;;;4989466;28;20507;-83
2022/01/03 01:04:09;;;;;;;6.90;2.40;;;10.30;99.90;;;;;;5013739;28;20841;-82
2022/01/03 01:06:37;;;;;;;4.97;3.10;;;10.20;99.90;;;;;;4990445;28;20197;-84
2022/01/03 01:09:05;;;;;;;2.47;1.97;;;10.90;99.90;;;;;;4980608;28;20502;-83
2022/01/03 01:11:32;;;;;;;12.37;2.00;;;10.50;99.90;;;;;;4990156;28;20432;-83
2022/01/03 01:14:00;;;;;;;8.05;3.35;;;10.60;99.90;;;;;;5013636;28;20462;-83
2022/01/03 01:16:26;;;;;;;10.23;2.30;;;10.40;99.90;;;;;;4980530;28;20268;-84
2022/01/03 01:18:54;;;;;;;4.80;1.90;;;11.30;99.90;;;;;;4988100;28;20279;-82
2022/01/03 01:21:22;;;;;;;10.03;2.20;;;10.50;99.90;;;;;;4990301;28;20514;-83
2022/01/03 01:23:50;;;;;;;16.52;2.95;;;10.30;99.90;;;;;;4988157;28;20459;-83
2022/01/03 01:29:25;;;;;;;10.57;3.15;;;11.00;99.90;;;;;;5016201;28;20483;-83
2022/01/03 01:31:52;;;;;;;12.20;2.57;;;10.50;99.90;;;;;;4989839;28;20184;-84
2022/01/03 01:34:28;;;;;;;5.30;2.20;;;12.40;99.90;;;;;;5006969;28;20276;-84
2022/01/03 01:36:56;;;;;;;5.60;3.03;;;11.10;99.90;;;;;;4977004;28;21195;-84
2022/01/03 01:39:25;;;;;;;6.30;2.63;;;10.70;99.90;;;;;;4988889;28;20872;-84
2022/01/03 01:41:58;;;;;;;11.03;3.10;;;10.60;99.90;;;;;;5003796;28;20759;-84
2022/01/03 01:44:25;;;;;;;8.90;3.07;;;11.90;99.90;;;;;;5005332;28;20885;-84
2022/01/03 01:46:56;;;;;;;9.43;2.17;;;10.70;99.90;;;;;;4974985;28;20421;-84
2022/01/03 01:49:25;;;;;;;14.00;2.67;;;10.20;99.90;;;;;;4987676;28;20494;-84
2022/01/03 01:52:00;;;;;;;7.10;1.90;;;10.50;99.90;;;;;;4990013;28;20407;-84
2022/01/03 01:54:31;;;;;;;2.53;1.15;;;10.50;99.90;;;;;;4985044;28;20200;-84
2022/01/03 01:57:05;;;;;;;10.47;2.37;;;10.60;99.90;;;;;;4984661;28;20231;-84
2022/01/03 02:00:00;;;;;;;7.72;1.77;;;13.50;99.90;;;;;;4988697;28;20447;-84
2022/01/03 02:02:50;;;;;;;4.83;2.20;;;11.10;99.90;;;;;;4981544;28;20564;-85
2022/01/03 02:05:55;;;;;;;7.60;2.67;;;10.40;99.90;;;;;;4989516;28;20434;-83
2022/01/03 02:08:31;;;;;;;12.55;2.80;;;11.00;99.90;;;;;;4989912;28;21001;-83
2022/01/03 02:11:07;;;;;;;12.45;2.58;;;10.70;99.90;;;;;;4970570;28;20231;-83
2022/01/03 02:13:35;;;;;;;5.63;2.45;;;10.50;99.90;;;;;;4975355;28;20756;-83
2022/01/03 02:16:04;;;;;;;4.37;2.60;;;10.60;99.90;;;;;;4952175;28;20224;-83
2022/01/03 02:18:31;;;;;;;5.85;2.35;;;12.80;99.90;;;;;;4966037;28;20782;-83
2022/01/03 02:20:57;;;;;;;19.53;2.30;;;12.20;99.90;;;;;;4960869;28;20193;-84
2022/01/03 02:23:23;;;;;;;11.70;2.90;;;10.40;99.90;;;;;;4967231;28;20644;-84
2022/01/03 02:25:49;;;;;;;7.57;1.50;;;;;;;;;;4965839;28;20309;-84
2022/01/03 02:28:16;;;;;;;3.27;1.60;;;10.70;99.90;;;;;;4967987;28;20188;-85
2022/01/03 02:30:42;;;;;;;6.65;2.08;;;10.60;99.90;;;;;;5262742;23;20614;-85
2022/01/03 02:33:08;;;;;;;6.77;2.30;;;10.50;99.90;;;;;;4969669;28;20561;-85
2022/01/03 02:35:36;;;;;;;5.70;1.87;;;10.30;99.90;;;;;;4951763;28;20429;-85
2022/01/03 02:38:02;;;;;;;9.52;3.50;;;11.30;99.90;;;;;;4967150;28;20733;-85
2022/01/03 02:40:28;;;;;;;9.18;2.05;;;10.30;99.90;;;;;;4985660;28;20189;-85
2022/01/03 02:42:53;;;;;;;8.13;2.20;;;10.50;99.90;;;;;;4984214;28;20574;-86
2022/01/03 02:45:22;;;;;;;7.17;1.47;;;10.60;99.90;;;;;;4966290;28;20689;-85
2022/01/03 02:47:51;;;;;;;5.60;2.70;;;9.70;99.90;;;;;;4964259;28;20188;-85
2022/01/03 02:50:43;;;;;;;3.40;1.08;;;10.40;99.90;;;;;;4950091;28;21083;-85
2022/01/03 02:53:09;;;;;;;8.13;2.87;;;10.40;99.90;;;;;;4953849;28;20652;-85
2022/01/03 02:55:34;;;;;;;9.13;2.60;;;11.30;99.90;;;;;;4979407;28;20432;-85
2022/01/03 02:58:06;;;;;;;13.57;2.33;;;12.90;99.90;;;;;;4966309;28;20250;-85
2022/01/03 03:00:36;;;;;;;10.40;1.93;;;10.40;99.90;;;;;;4960671;28;20197;-85
2022/01/03 03:03:03;;;;;;;7.80;1.70;;;10.30;99.90;;;;;;4975141;28;20491;-85
2022/01/03 03:05:29;;;;;;;5.70;1.63;;;10.30;99.90;;;;;;4968358;28;20189;-85
2022/01/03 03:07:55;;;;;;;8.50;3.00;;;10.60;99.90;;;;;;4973214;28;20736;-85
2022/01/03 03:10:24;;;;;;;12.67;2.37;;;10.40;99.90;;;;;;4986294;28;20537;-86
2022/01/03 03:12:50;;;;;;;10.77;2.20;;;10.50;99.90;;;;;;4990497;28;20424;-85
2022/01/03 03:15:16;;;;;;;7.30;2.50;;;10.40;99.90;;;;;;4968510;28;20451;-85
2022/01/03 03:17:44;;;;;;;7.53;2.17;;;11.20;99.90;;;;;;4963767;28;20658;-86
2022/01/03 03:20:16;;;;;;;6.82;2.40;;;10.50;99.90;;;;;;4968174;28;20178;-85
2022/01/03 03:22:49;;;;;;;7.15;1.98;;;11.10;99.90;;;;;;4984085;28;20198;-86
2022/01/03 03:25:23;;;;;;;12.33;1.27;;;11.90;99.90;;;;;;4971939;28;20196;-86
2022/01/03 03:27:54;;;;;;;4.33;1.70;;;10.60;99.90;;;;;;4989799;28;20506;-86
2022/01/03 03:30:32;;;;;;;10.37;1.70;;;10.90;99.90;;;;;;4970620;28;20473;-85
2022/01/03 03:33:07;;;;;;;7.13;2.37;;;10.30;99.90;;;;;;4969605;28;20441;-85
2022/01/03 03:35:32;;;;;;;2.90;1.17;;;10.60;99.90;;;;;;4972832;28;20429;-85
2022/01/03 03:37:58;;;;;;;9.50;2.60;;;10.50;99.90;;;;;;4970538;28;20452;-85
2022/01/03 03:40:24;;;;;;;5.83;1.80;;;;;;;;;;4957251;28;20434;-86
2022/01/03 03:42:50;;;;;;;7.55;3.03;;;10.50;99.90;;;;;;4954002;28;20196;-86
2022/01/03 03:45:16;;;;;;;11.97;1.70;;;10.30;99.90;;;;;;4963548;28;20190;-87
2022/01/03 03:47:41;;;;;;;5.80;2.07;;;11.80;99.90;;;;;;4955442;28;20453;-86
2022/01/03 03:50:08;;;;;;;10.43;2.20;;;10.50;99.90;;;;;;4963696;28;20213;-87
2022/01/03 03:52:33;;;;;;;9.50;1.90;;;10.60;99.90;;;;;;4958994;28;20196;-86
2022/01/03 03:54:59;;;;;;;6.97;2.37;;;12.20;99.90;;;;;;4964155;28;20437;-86
2022/01/03 03:57:24;;;;;;;7.43;1.57;;;10.40;99.90;;;;;;4963970;28;20196;-86
2022/01/03 03:59:50;;;;;;;11.03;1.70;;;10.60;99.90;;;;;;4965088;28;20487;-87
2022/01/03 04:02:16;;;;;;;10.53;3.50;;;;;;;;;;4963041;28;20193;-86
2022/01/03 04:04:42;;;;;;;9.23;2.53;;;10.50;99.90;;;;;;4959598;28;20214;-86
2022/01/03 04:07:08;;;;;;;9.40;2.50;;;10.20;99.90;;;;;;4961102;28;21039;-86
2022/01/03 04:09:33;;;;;;;7.60;3.40;;;10.30;99.90;;;;;;4965809;28;20209;-86
2022/01/03 04:11:59;;;;;;;7.97;2.43;;;10.40;99.90;;;;;;4957068;28;20391;-86
2022/01/03 04:14:25;;;;;;;13.00;2.17;;;10.30;99.90;;;;;;4965444;28;20204;-86
2022/01/03 04:16:50;;;;;;;4.20;1.70;;;10.20;99.90;;;;;;4967224;28;20185;-86
2022/01/03 04:19:16;;;;;;;8.07;3.20;;;10.00;99.90;;;;;;4972895;28;20241;-86
2022/01/03 04:21:42;;;;;;;22.10;4.07;;;10.10;99.90;;;;;;4966480;28;20200;-86
2022/01/03 04:24:09;;;;;;;5.30;2.00;;;9.80;99.90;;;;;;4965654;28;20212;-86
2022/01/03 04:26:36;;;;;;;9.10;3.07;;;10.10;99.90;;;;;;4967973;28;20461;-86
2022/01/03 04:29:03;;;;;;;7.30;2.30;;;10.60;99.90;;;;;;4954704;28;20484;-86
2022/01/03 04:31:29;;;;;;;4.00;2.22;;;9.70;99.90;;;;;;4974925;28;20287;-87
2022/01/03 04:33:56;;;;;;;7.47;2.07;;;10.30;99.90;;;;;;4994070;28;20237;-87
2022/01/03 04:36:21;;;;;;;8.25;1.80;;;9.60;99.90;;;;;;4987018;28;20440;-85
2022/01/03 04:38:47;;;;;;;10.43;1.77;;;9.50;99.90;;;;;;4969330;28;20197;-84
2022/01/03 04:41:13;;;;;;;12.77;3.30;;;9.70;99.90;;;;;;4988156;28;20189;-85
2022/01/03 04:43:41;;;;;;;10.60;2.13;;;12.00;99.90;;;;;;4969819;28;20310;-86
2022/01/03 04:46:07;;;;;;;10.73;3.65;;;10.00;99.90;;;;;;4987127;28;20797;-85
2022/01/03 04:48:33;;;;;;;6.50;2.22;;;9.80;99.90;;;;;;4986298;28;20209;-84
2022/01/03 04:50:59;;;;;;;6.70;1.87;;;11.00;99.90;;;;;;4988206;28;20685;-85
2022/01/03 04:53:27;;;;;;;7.20;2.63;;;9.90;99.90;;;;;;4986919;28;20441;-85
2022/01/03 04:55:53;;;;;;;4.85;1.67;;;;;;;;;;4960559;28;20182;-86
2022/01/03 04:58:19;;;;;;;8.07;3.00;;;9.80;99.90;;;;;;4967712;28;20244;-86
2022/01/03 05:00:45;;;;;;;5.73;2.13;;;;;;;;;;4971429;28;20189;-86
2022/01/03 05:03:12;;;;;;;6.07;2.08;;;9.90;99.90;;;;;;4295988;28;10000763;-87
2022/01/03 05:05:37;;;;;;;4.75;2.20;;;11.00;99.90;;;;;;4958312;28;20193;-87
2022/01/03 05:08:03;;;;;;;8.97;2.90;;;9.50;99.90;;;;;;4964789;28;20220;-85
2022/01/03 05:10:30;;;;;;;10.93;4.90;;;9.80;99.90;;;;;;4953994;28;20763;-85
2022/01/03 05:12:56;;;;;;;11.33;2.40;;;9.70;99.90;;;;;;4972474;28;20201;-86
2022/01/03 05:15:21;;;;;;;12.63;1.93;;;9.70;99.90;;;;;;4960892;28;20762;-86
2022/01/03 05:17:47;;;;;;;8.20;2.40;;;11.70;99.90;;;;;;4972807;28;20201;-86
2022/01/03 05:20:14;;;;;;;12.10;2.30;;;9.70;99.90;;;;;;4967446;28;20185;-85
2022/01/03 05:22:40;;;;;;;10.90;2.22;;;9.50;99.90;;;;;;4959986;28;20264;-85
2022/01/03 05:25:06;;;;;;;4.70;2.20;;;9.70;99.90;;;;;;4958418;28;20198;-85
2022/01/03 05:27:33;;;;;;;7.18;2.08;;;10.00;99.90;;;;;;4976888;28;20352;-84
2022/01/03 05:29:59;;;;;;;9.65;2.53;;;10.10;99.90;;;;;;4954197;28;20890;-85
2022/01/03 05:32:24;;;;;;;10.23;2.80;;;10.00;99.90;;;;;;4962882;28;20193;-86
2022/01/03 05:34:51;;;;;;;8.93;2.00;;;10.00;99.90;;;;;;4964029;28;20228;-85
2022/01/03 05:37:16;;;;;;;7.30;1.90;;;10.20;99.90;;;;;;4965887;28;20705;-85
2022/01/03 05:39:42;;;;;;;7.70;2.10;;;9.80;99.90;;;;;;4986171;28;20690;-86
2022/01/03 05:42:07;;;;;;;1.53;1.07;;;10.00;99.90;;;;;;4970178;28;20294;-85
2022/01/03 05:44:33;;;;;;;3.27;2.50;;;10.10;99.90;;;;;;4984948;28;20260;-85
2022/01/03 05:46:58;;;;;;;5.33;2.17;;;10.10;99.90;;;;;;4967876;28;20439;-85
2022/01/03 05:49:24;;;;;;;7.90;3.27;;;10.10;99.90;;;;;;4966758;28;20224;-85
2022/01/03 05:51:50;;;;;;;8.17;2.10;;;10.60;99.90;;;;;;4966985;28;20189;-85
2022/01/03 05:54:15;;;;;;;7.57;2.30;;;10.00;99.90;;;;;;4978053;28;20220;-84
2022/01/03 05:56:41;;;;;;;4.63;2.47;;;10.10;99.90;;;;;;4986322;28;20200;-84
2022/01/03 05:59:08;;;;;;;7.07;3.40;;;;;;;;;;4970584;28;20193;-85
2022/01/03 06:01:35;;;;;;;6.80;1.45;;;10.30;99.90;;;;;;4982565;28;20672;-85
2022/01/03 06:04:12;;;;;;;5.95;2.83;;;12.10;99.90;;;;;;4967502;28;20203;-85
2022/01/03 06:06:53;;;;;;;10.95;2.15;;;10.40;99.90;;;;;;4984267;28;20197;-85
2022/01/03 06:09:19;;;;;;;12.98;3.00;;;10.10;99.90;;;;;;4985494;28;20221;-84
2022/01/03 06:11:45;;;;;;;9.40;2.23;;;10.90;99.90;;;;;;4984658;28;20190;-87
2022/01/03 06:14:10;;;;;;;5.60;2.20;;;10.30;99.90;;;;;;5044881;23;20519;-85
2022/01/03 06:16:37;;;;;;;5.07;1.57;;;10.40;99.90;;;;;;5007368;28;20184;-86
2022/01/03 06:19:02;;;;;;;9.35;2.50;;;10.30;99.90;;;;;;5011452;28;20222;-86
2022/01/03 06:21:28;;;;;;;5.43;2.20;;;10.30;99.90;;;;;;5006166;28;20181;-86
2022/01/03 06:23:54;;;;;;;6.70;2.33;;;9.90;99.90;;;;;;5013714;28;20199;-85
2022/01/03 06:26:19;;;;;;;8.50;2.20;;;10.20;99.90;;;;;;4979429;28;20204;-87
2022/01/03 06:28:45;;;;;;;15.10;2.90;;;10.20;99.90;;;;;;4994487;28;20209;-86
2022/01/03 06:31:11;;;;;;;10.03;1.47;;;10.30;99.90;;;;;;4980955;28;20659;-87
2022/01/03 06:33:36;;;;;;;5.67;2.23;;;10.20;99.90;;;;;;5000017;28;20553;-85
2022/01/03 06:36:02;;;;;;;7.60;1.87;;;10.10;99.90;;;;;;4988110;28;20224;-86
2022/01/03 06:38:28;;;;;;;10.40;3.80;;;10.20;99.90;;;;;;4993503;28;20283;-84
2022/01/03 06:40:53;;;;;;;17.93;2.93;;;11.60;99.90;;;;;;4988570;28;20442;-86
2022/01/03 06:43:19;;;;;;;7.53;1.80;;;11.10;99.90;;;;;;4978318;28;20280;-87
2022/01/03 06:45:45;;;;;;;11.77;3.60;;;10.20;99.90;;;;;;5007547;28;20180;-86
2022/01/03 06:48:11;;;;;;;11.90;2.60;;;10.20;99.90;;;;;;4983805;28;20212;-86
2022/01/03 06:50:37;;;;;;;8.87;2.70;;;11.70;99.90;;;;;;5004436;28;20451;-85
2022/01/03 06:53:03;;;;;;;8.03;2.40;;;10.60;99.90;;;;;;5019151;28;20196;-87
2022/01/03 06:55:28;;;;;;;9.67;2.10;;;10.50;99.90;;;;;;5005057;28;20619;-87
2022/01/03 06:57:54;;;;;;;9.93;1.60;;;10.50;99.90;;;;;;5006954;28;20431;-85
2022/01/03 07:00:20;;;;;;;8.40;2.40;;;11.50;99.90;;;;;;5000839;28;20205;-87
2022/01/03 07:02:46;;;;;;;12.13;6.10;;;10.40;99.90;;;;;;5000481;28;20558;-88
2022/01/03 07:05:13;;;;;;;6.13;2.00;;;10.30;99.90;;;;;;5010828;28;20204;-87
2022/01/03 07:07:39;;;;;;;11.60;3.15;;;10.60;99.90;;;;;;5010117;28;20185;-87
2022/01/03 07:10:06;;;;;;;12.63;4.93;;;10.90;99.90;;;;;;4993684;28;20216;-87
2022/01/03 07:12:32;;;;;;;13.90;2.00;;;10.40;99.90;;;;;;5013640;28;20215;-86
2022/01/03 07:20:10;;;;;;;3.55;1.77;;;10.40;99.90;;;;;;5009650;28;20219;-84
2022/01/03 07:22:40;;;;;;;5.50;2.45;;;10.40;99.90;;;;;;5009499;28;20235;-85
2022/01/03 07:25:08;;;;;;;6.20;2.50;;;10.50;99.90;;;;;;5007041;28;20216;-83
2022/01/03 07:27:34;;;;;;;10.00;1.85;;;10.40;99.90;;;;;;5006693;28;20188;-86
2022/01/03 07:29:59;;;;;;;5.40;3.00;;;10.30;99.90;;;;;;5004501;28;20220;-86
2022/01/03 07:32:25;;;;;;;8.13;3.20;;;10.50;99.90;;;;;;4997631;28;20185;-87
2022/01/03 07:34:53;;;;;;;8.80;2.57;;;10.60;99.90;;;;;;5008978;28;20192;-90
2022/01/03 07:37:25;;;;;;;6.70;1.70;;;10.80;99.90;;;;;;5026154;28;20165;-90
2022/01/03 07:39:52;;;;;;;6.93;2.85;;;10.40;99.90;;;;;;5019702;28;20204;-87
2022/01/03 07:42:32;;;;;;;7.60;2.00;;;10.30;99.90;;;;;;5018023;28;20177;-90
2022/01/03 07:44:58;;;;;;;7.63;2.23;;;;;;;;;;5010436;28;20436;-89
2022/01/03 07:47:28;;;;;;;12.23;2.70;;;10.40;99.90;;;;;;5010379;28;20443;-89
2022/01/03 07:50:11;;;;;;;6.30;2.27;;;10.40;99.90;;;;;;5023431;28;20483;-89
2022/01/03 07:52:37;;;;;;;6.47;2.07;;;;;;;;;;4984468;28;20428;-88
2022/01/03 07:55:05;;;;;;;5.70;2.37;;;10.40;99.90;;;;;;5007932;28;20990;-85
2022/01/03 07:57:31;;;;;;;8.83;2.10;;;10.70;99.90;;;;;;4995034;28;20962;-87
2022/01/03 07:59:57;;;;;;;10.90;4.23;;;10.60;99.90;;;;;;5010260;28;20435;-88
2022/01/03 08:02:23;;;;;;;15.10;3.07;;;10.30;99.90;;;;;;4318845;28;10000697;-85
2022/01/03 08:04:48;;;;;;;10.30;3.30;;;10.30;99.90;;;;;;5005571;28;20196;-85
2022/01/03 08:07:14;;;;;;;10.87;1.90;;;11.40;99.90;;;;;;5007896;28;20431;-86
2022/01/03 08:09:39;;;;;;;4.27;2.43;;;10.30;99.90;;;;;;5004011;28;20209;-86
2022/01/03 08:12:06;;;;;;;4.40;2.77;;;10.30;99.90;;;;;;5001639;28;20201;-88
2022/01/03 08:14:32;;;;;;;10.40;3.00;;;10.10;99.90;;;;;;4958611;28;20236;-85
2022/01/03 08:17:00;;;;;;;7.10;2.80;;;9.80;99.90;;;;;;4973338;28;20471;-86
2022/01/03 08:19:26;;;;;;;9.70;2.40;;;10.00;99.90;;;;;;4971350;28;20433;-87
2022/01/03 08:22:03;;;;;;;8.20;3.10;;;10.10;99.90;;;;;;4970430;28;20439;-85
2022/01/03 08:24:28;;;;;;;4.82;1.95;;;10.80;99.90;;;;;;4958814;28;20185;-84
2022/01/03 08:26:54;;;;;;;4.93;1.90;;;10.20;99.90;;;;;;4969787;28;20212;-86
2022/01/03 08:29:20;;;;;;;7.63;2.77;;;10.20;99.90;;;;;;4970373;28;20217;-85
2022/01/03 08:31:46;;;;;;;12.67;2.10;;;10.20;99.90;;;;;;4976723;28;20824;-85
2022/01/03 08:34:12;;;;;;;5.63;2.00;;;10.20;99.90;;;;;;4974623;28;20472;-87
2022/01/03 08:36:38;;;;;;;5.27;1.83;;;10.90;99.90;;;;;;4973222;28;20209;-86
2022/01/03 08:39:04;;;;;;;11.20;3.30;;;11.00;99.90;;;;;;4974414;28;20992;-88
2022/01/03 08:41:29;;;;;;;5.50;2.20;;;10.30;99.90;;;;;;4975477;28;20436;-89
2022/01/03 08:43:55;;;;;;;5.97;2.50;;;10.30;99.90;;;;;;4995983;28;20961;-88
2022/01/03 08:46:23;;;;;;;10.23;2.13;;;10.40;99.90;;;;;;4975393;28;20220;-87
2022/01/03 08:48:51;;;;;;;8.27;2.97;;;10.50;99.90;;;;;;4958142;28;20194;-89
2022/01/03 08:51:26;;;;;;;4.30;2.06;;;10.60;99.90;;;;;;4945872;28;10000857;-88
2022/01/03 08:53:52;;;;;;;5.20;2.13;;;10.40;99.90;;;;;;4959424;28;20379;-88
2022/01/03 08:56:18;;;;;;;11.73;2.60;;;10.50;99.90;;;;;;4960551;28;20657;-89
2022/01/03 08:58:43;;;;;;;11.33;2.10;;;10.20;99.90;;;;;;4996651;28;20424;-89
2022/01/03 09:01:10;;;;;;;11.97;2.40;;;10.30;99.90;;;;;;4989267;28;20166;-86
2022/01/03 09:03:36;;;;;;;10.32;3.00;;;10.70;99.90;;;;;;4969654;28;20240;-88
2022/01/03 09:06:01;;;;;;;5.03;2.20;;;10.60;99.90;;;;;;4970942;28;20214;-88
2022/01/03 09:08:27;;;;;;;8.03;2.60;;;10.10;99.90;;;;;;4969419;28;20193;-88
2022/01/03 09:10:59;;;;;;;7.03;1.87;;;11.10;99.90;;;;;;4989758;28;20189;-89
2022/01/03 09:13:25;;;;;;;20.97;3.07;;;10.30;99.90;;;;;;4976315;28;20227;-87
2022/01/03 09:15:51;;;;;;;3.23;1.50;;;10.90;99.90;;;;;;4989829;28;20972;-86
2022/01/03 09:18:22;;;;;;;5.87;2.20;;;10.30;99.90;;;;;;4956141;28;20613;-86
2022/01/03 09:20:50;;;;;;;8.40;2.43;;;10.50;99.90;;;;;;5003470;28;20427;-87
2022/01/03 09:23:21;;;;;;;12.70;3.57;;;10.30;99.90;;;;;;4992212;28;20463;-87
2022/01/03 09:31:16;;;;;;;8.87;2.77;;;10.50;99.90;;;;;;5006574;28;20443;-86
2022/01/03 09:33:45;;;;;;;9.10;2.70;;;10.70;99.90;;;;;;5010622;28;20933;-88
2022/01/03 09:36:24;;;;;;;4.07;1.80;;;10.70;99.90;;;;;;5002806;28;21090;-87
2022/01/03 09:38:56;;;;;;;9.33;3.00;;;10.80;99.90;;;;;;4962774;28;20663;-88
2022/01/03 09:41:31;;;;;;;5.27;2.80;;;10.80;99.90;;;;;;4986339;28;20435;-88
2022/01/03 09:44:05;;;;;;;10.87;3.10;;;10.90;99.90;;;;;;4980628;28;20534;-85
2022/01/03 09:46:41;;;;;;;7.17;3.03;;;10.90;99.90;;;;;;4973937;28;20792;-88
2022/01/03 09:49:14;;;;;;;11.30;3.50;;;11.50;99.90;;;;;;4978410;28;20471;-88
2022/01/03 09:51:44;;;;;;;5.57;2.38;;;11.30;99.90;;;;;;4973549;28;20433;-89
2022/01/03 09:54:15;;;;;;;10.43;3.07;;;11.40;99.90;;;;;;4991182;28;20174;-80
2022/01/03 09:56:42;;;;;;;10.33;2.40;;;11.20;99.90;;;;;;4984926;28;20440;-85
2022/01/03 09:59:08;;;;;;;12.63;2.40;;;11.20;99.90;;;;;;4991787;28;20913;-84
2022/01/03 10:01:34;;;;;;;7.00;1.93;;;11.20;99.90;;;;;;4967166;28;20425;-85
2022/01/03 10:04:02;;;;;;;10.23;2.63;;;11.30;99.90;;;;;;4972614;28;20482;-86
2022/01/03 10:06:28;;;;;;;4.13;2.40;;;11.20;99.90;;;;;;4976969;28;21209;-86
2022/01/03 10:08:55;;;;;;;6.40;2.17;;;11.30;99.90;;;;;;4988254;28;20468;-82
2022/01/03 10:11:22;;;;;;;8.73;3.20;;;11.30;99.90;;;;;;4984650;28;20220;-82
2022/01/03 10:13:49;;;;;;;7.73;2.53;;;11.00;99.90;;;;;;4984933;28;20514;-82
2022/01/03 10:16:15;;;;;;;9.40;2.50;;;11.10;99.90;;;;;;4980820;28;20979;-83
2022/01/03 10:18:41;;;;;;;3.17;2.00;;;12.20;99.90;;;;;;4986766;28;20439;-81
2022/01/03 10:21:08;;;;;;;2.93;2.40;;;11.30;99.90;;;;;;4984574;28;20432;-82
2022/01/03 10:23:36;;;;;;;4.57;2.40;;;11.20;99.90;;;;;;4978704;28;20991;-82
2022/01/03 10:26:18;;;;;;;6.63;2.40;;;11.80;99.90;;;;;;4985393;28;20440;-78
2022/01/03 10:28:44;;;;;;;7.27;3.40;;;11.80;99.90;;;;;;4968842;28;20903;-81
2022/01/03 10:31:18;;;;;;;15.27;3.27;;;11.50;99.90;;;;;;4984538;28;20421;-81
2022/01/03 10:33:44;;;;;;;7.33;1.70;;;11.10;99.90;;;;;;4976324;28;20435;-81
2022/01/03 10:36:27;;;;;;;9.20;3.37;;;11.60;99.90;;;;;;4974174;28;20437;-82
2022/01/03 10:38:53;;;;;;;3.73;1.60;;;11.70;99.90;;;;;;4960340;28;20942;-83
2022/01/03 10:41:24;;;;;;;9.10;2.90;;;11.90;99.90;;;;;;4986287;28;20483;-84
2022/01/03 10:43:55;;;;;;;4.77;2.80;;;11.80;99.90;;;;;;4984789;28;20471;-83
2022/01/03 10:46:24;;;;;;;4.57;2.38;;;11.80;99.90;;;;;;4966866;28;20459;-83
2022/01/03 10:48:52;;;;;;;6.13;1.63;;;11.60;99.90;;;;;;4988324;28;20229;-86
2022/01/03 10:51:24;;;;;;;11.77;2.30;;;11.80;99.90;;;;;;4961881;28;20432;-84
2022/01/03 10:53:54;;;;;;;7.30;2.43;;;13.50;99.90;;;;;;4980298;28;20435;-82
2022/01/03 10:56:38;;;;;;;7.97;2.53;;;11.00;99.90;;;;;;4982371;28;20753;-85
2022/01/03 10:59:15;;;;;;;6.37;2.67;;;12.10;99.90;;;;;;5007258;28;20440;-88
2022/01/03 11:01:47;;;;;;;7.00;2.70;;;11.30;99.90;;;;;;4992627;28;20444;-88
2022/01/03 11:04:39;;;;;;;9.37;2.27;;;13.10;99.90;;;;;;4989120;28;20421;-86
2022/01/03 11:13:01;;;;;;;3.97;1.80;;;12.00;99.90;;;;;;4988559;28;20976;-88
2022/01/03 11:15:27;;;;;;;6.00;2.67;;;13.30;99.90;;;;;;4994729;28;20488;-86
2022/01/03 11:18:06;;;;;;;16.80;3.07;;;11.90;99.90;;;;;;4988707;28;20448;-88
2022/01/03 11:20:33;;;;;;;6.13;3.93;;;13.50;99.90;;;;;;4301389;28;10000714;-88
2022/01/03 11:22:59;;;;;;;9.13;3.77;;;11.70;99.90;;;;;;4984957;28;20244;-86
2022/01/03 11:25:32;;;;;;;5.30;1.93;;;11.70;99.90;;;;;;4966114;28;20990;-85
2022/01/03 11:28:00;;;;;;;7.83;2.57;;;11.90;99.90;;;;;;4973721;28;20429;-89
2022/01/03 11:30:27;;;;;;;4.97;2.37;;;13.30;99.90;;;;;;4965508;28;20515;-88
2022/01/03 11:32:54;;;;;;;4.17;3.83;;;11.50;99.90;;;;;;4981006;28;20436;-86
2022/01/03 11:35:20;;;;;;;5.90;2.57;;;11.20;99.90;;;;;;4960953;28;20456;-87
2022/01/03 11:37:48;;;;;;;9.80;2.87;;;11.80;99.90;;;;;;4988429;28;20437;-87
2022/01/03 11:40:16;;;;;;;3.33;1.37;;;13.10;99.90;;;;;;4985553;28;20520;-87
2022/01/03 11:42:45;;;;;;;4.60;1.77;;;12.00;99.90;;;;;;4990070;28;20427;-88
2022/01/03 11:45:11;;;;;;;5.90;2.03;;;13.50;99.90;;;;;;4991275;28;20439;-85
2022/01/03 11:47:38;;;;;;;7.93;2.40;;;11.90;99.90;;;;;;4971756;28;20799;-84
2022/01/03 11:50:07;;;;;;;4.13;2.13;;;11.90;99.90;;;;;;4970745;28;20479;-88
2022/01/03 11:52:41;;;;;;;3.90;1.83;;;11.90;99.90;;;;;;4980389;28;20483;-88
2022/01/03 11:55:09;;;;;;;5.60;1.97;;;12.00;99.90;;;;;;4969108;28;20427;-85
2022/01/03 12:06:03;;;;;;;9.13;2.37;;;11.70;99.90;;;;;;4971717;28;20535;-85
2022/01/03 12:08:38;;;;;;;5.50;2.20;;;11.90;99.90;;;;;;4986277;28;20439;-84
2022/01/03 12:11:41;;;;;;;6.77;2.50;;;11.60;99.90;;;;;;4981150;28;20448;-86
2022/01/03 12:14:10;;;;;;;4.53;2.00;;;12.30;99.90;;;;;;4966291;28;21065;-85
2022/01/03 12:16:47;;;;;;;10.13;2.70;;;12.00;99.90;;;;;;4998004;28;20495;-85
2022/01/03 12:19:27;;;;;;;7.90;2.90;;;11.90;99.90;;;;;;4986405;28;20432;-83
2022/01/03 12:22:00;;;;;;;7.33;2.43;;;11.70;99.90;;;;;;4967383;28;20428;-88
2022/01/03 12:24:28;;;;;;;2.40;1.40;;;11.80;99.90;;;;;;4975184;28;20475;-88
2022/01/03 12:27:24;;;;;;;4.43;1.90;;;11.90;99.90;;;;;;4981643;28;20458;-88
2022/01/03 12:29:56;;;;;;;3.00;1.80;;;12.60;99.90;;;;;;4982429;28;20248;-87
2022/01/03 12:32:32;;;;;;;7.53;1.93;;;11.90;99.90;;;;;;4975390;28;20441;-87
2022/01/03 12:35:10;;;;;;;2.07;1.97;;;14.20;99.90;;;;;;4974126;28;20930;-88
2022/01/03 12:37:54;;;;;;;3.77;1.50;;;11.70;99.90;;;;;;4981817;28;20440;-85
2022/01/03 12:40:30;;;;;;;4.00;2.07;;;12.30;99.90;;;;;;4972703;28;20835;-85
2022/01/03 12:43:05;;;;;;;1.23;0.80;;;11.70;99.90;;;;;;4984548;28;20533;-85
2022/01/03 12:45:34;;;;;;;5.83;1.80;;;11.70;99.90;;;;;;4981109;28;20494;-83
2022/01/03 12:48:11;;;;;;;3.87;2.27;;;11.70;99.90;;;;;;4976321;28;20437;-85
2022/01/03 12:50:52;;;;;;;5.53;1.80;;;11.10;99.90;;;;;;4986726;28;20475;-86
2022/01/03 12:53:27;;;;;;;8.20;2.60;;;11.10;99.90;;;;;;4965364;28;20962;-84
2022/01/03 12:55:54;;;;;;;3.47;2.03;;;10.90;99.90;;;;;;4964245;28;20855;-86
2022/01/03 12:58:21;;;;;;;5.75;2.92;;;10.70;99.90;;;;;;4990822;28;20847;-86
2022/01/03 13:01:05;;;;;;;7.50;2.23;;;10.80;99.90;;;;;;4989855;28;20212;-84
2022/01/03 13:03:51;;;;;;;5.83;2.00;;;10.90;99.90;;;;;;4976151;28;20496;-84
2022/01/03 13:06:24;;;;;;;5.10;3.43;;;10.70;99.90;;;;;;4964431;28;20617;-87
2022/01/03 13:08:55;;;;;;;9.63;2.75;;;10.60;99.90;;;;;;4980904;28;20476;-86
2022/01/03 13:11:55;;;;;;;4.13;2.22;;;10.60;99.90;;;;;;4985954;28;20205;-85
2022/01/03 13:14:23;;;;;;;6.17;1.80;;;10.60;99.90;;;;;;4990956;28;20220;-85
2022/01/03 13:16:58;;;;;;;7.20;2.57;;;12.70;99.90;;;;;;4980789;28;20437;-85
2022/01/03 13:19:29;;;;;;;3.78;2.35;;;10.30;99.90;;;;;;4985966;28;20635;-84
2022/01/03 13:22:02;;;;;;;4.90;2.45;;;10.20;99.90;;;;;;4989261;28;20667;-84
2022/01/03 13:24:36;;;;;;;6.00;1.90;;;10.30;99.90;;;;;;4989440;28;20201;-85
2022/01/03 13:27:10;;;;;;;1.90;1.80;;;10.30;99.90;;;;;;4989528;28;20972;-85